Time;durP1;ratioP1;P1;durP2;ratioP2;P2;SDS_P1;SDS_P2;PMS_P1;PMS_P2;Temp;Humidity;BMP_temperature;BMP_pressure;BME280_temperature;BME280_humidity;BME280_pressure;Samples;Min_cycle;Max_cycle;Signal;HPM_P1;HPM_P2
2023/06/24 00:01:28;;;;;;;15.90;10.73;;;;;;;;;;5034487;28;20480;-74
2023/06/24 00:03:54;;;;;;;14.55;10.55;;;;;;;;;;5034152;28;20022;-74
2023/06/24 00:06:22;;;;;;;18.33;10.93;;;;;;;;;;5049488;28;20025;-74
2023/06/24 00:08:48;;;;;;;15.40;11.23;;;;;;;;;;5034373;28;20021;-74
2023/06/24 00:11:14;;;;;;;18.05;10.77;;;;;;;;;;5034040;28;20068;-75
2023/06/24 00:13:41;;;;;;;15.52;9.98;;;;;;;;;;5034018;28;20029;-74
2023/06/24 00:16:07;;;;;;;15.65;10.77;;;;;;;;;;5033988;28;20026;-74
2023/06/24 00:18:33;;;;;;;15.82;9.65;;;;;;;;;;5034213;28;20437;-74
2023/06/24 00:21:01;;;;;;;13.20;9.32;;;;;;;;;;5033956;28;20025;-75
2023/06/24 00:23:27;;;;;;;13.02;8.85;;;;;;;;;;5034014;28;20041;-75
2023/06/24 00:25:54;;;;;;;15.65;9.13;;;;;;;;;;5026097;28;20457;-75
2023/06/24 00:28:20;;;;;;;11.80;8.85;;;;;;;;;;5028575;28;20024;-75
2023/06/24 00:30:47;;;;;;;11.85;8.57;;;;;;;;;;5032668;28;20060;-74
2023/06/24 00:33:13;;;;;;;13.30;9.10;;;;;;;;;;5032467;28;20073;-74
2023/06/24 00:35:43;;;;;;;13.13;9.50;;;;;;;;;;5033993;28;20022;-74
2023/06/24 00:38:09;;;;;;;13.52;8.35;;;;;;;;;;5033559;28;20022;-74
2023/06/24 00:40:35;;;;;;;15.18;9.35;;;;;;;;;;5033588;28;20029;-74
2023/06/24 00:43:02;;;;;;;13.27;9.15;;;;;;;;;;5033421;28;20088;-75
2023/06/24 00:45:30;;;;;;;12.85;9.07;;;;;;;;;;5033232;28;20022;-75
2023/06/24 00:47:56;;;;;;;12.80;8.90;;;;;;;;;;5017942;28;20100;-74
2023/06/24 00:50:22;;;;;;;14.05;9.95;;;;;;;;;;5013515;28;20026;-75
2023/06/24 00:52:49;;;;;;;13.48;9.68;;;;;;;;;;5013515;28;20608;-75
2023/06/24 00:55:16;;;;;;;17.05;9.90;;;;;;;;;;5013512;28;20069;-74
2023/06/24 00:57:43;;;;;;;13.73;8.90;;;;;;;;;;5013755;28;20018;-74
2023/06/24 01:00:14;;;;;;;16.83;9.57;;;;;;;;;;5023215;28;20469;-74
2023/06/24 01:02:42;;;;;;;15.25;8.80;;;;;;;;;;5032638;28;20033;-75
2023/06/24 01:05:08;;;;;;;13.60;9.70;;;;;;;;;;5033257;28;20101;-74
2023/06/24 01:07:35;;;;;;;12.93;8.73;;;;;;;;;;5033346;28;20022;-74
2023/06/24 01:10:02;;;;;;;12.40;8.68;;;;;;;;;;5033315;28;20014;-74
2023/06/24 01:12:28;;;;;;;14.40;9.45;;;;;;;;;;5033054;28;20031;-74
2023/06/24 01:14:55;;;;;;;14.63;9.70;;;;;;;;;;5033031;28;20025;-74
2023/06/24 01:17:28;;;;;;;16.27;10.18;;;;;;;;;;5033511;28;20029;-74
2023/06/24 01:20:00;;;;;;;13.90;10.02;;;;;;;;;;5033464;28;20024;-75
2023/06/24 01:22:41;;;;;;;14.27;10.50;;;;;;;;;;5032904;28;20029;-74
2023/06/24 01:25:07;;;;;;;16.00;10.90;;;;;;;;;;5032872;28;20021;-74
2023/06/24 01:27:44;;;;;;;16.70;10.93;;;;;;;;;;5032817;28;20420;-75
2023/06/24 01:30:18;;;;;;;17.13;10.25;;;;;;;;;;5032779;28;20104;-74
2023/06/24 01:32:55;;;;;;;16.30;10.70;;;;;;;;;;5032703;28;20021;-74
2023/06/24 01:35:23;;;;;;;16.35;10.38;;;;;;;;;;5032491;28;20116;-74
2023/06/24 01:37:53;;;;;;;14.20;9.98;;;;;;;;;;5020002;28;20062;-74
2023/06/24 01:40:31;;;;;;;15.77;10.63;;;;;;;;;;5032372;28;20060;-74
2023/06/24 01:42:58;;;;;;;15.85;10.75;;;;;;;;;;5032089;28;20362;-74
2023/06/24 01:45:29;;;;;;;16.30;11.05;;;;;;;;;;5032268;28;20032;-74
2023/06/24 01:48:15;;;;;;;16.75;10.88;;;;;;;;;;5025819;28;20069;-75
2023/06/24 01:50:49;;;;;;;17.48;11.63;;;;;;;;;;5032189;28;20025;-75
2023/06/24 01:53:15;;;;;;;16.67;10.63;;;;;;;;;;5017964;28;20128;-75
2023/06/24 01:55:42;;;;;;;17.80;11.43;;;;;;;;;;5012545;28;20104;-75
2023/06/24 01:58:12;;;;;;;18.52;10.60;;;;;;;;;;5012623;28;20072;-75
2023/06/24 02:00:39;;;;;;;16.30;10.38;;;;;;;;;;5012529;28;20037;-75
2023/06/24 02:03:06;;;;;;;17.58;10.15;;;;;;;;;;5012558;28;20040;-75
2023/06/24 02:05:32;;;;;;;18.23;11.05;;;;;;;;;;5012496;28;20034;-75
2023/06/24 02:07:59;;;;;;;19.73;11.35;;;;;;;;;;5012531;28;20048;-75
2023/06/24 02:10:25;;;;;;;17.73;11.30;;;;;;;;;;5012481;28;20037;-75
2023/06/24 02:12:51;;;;;;;17.15;11.65;;;;;;;;;;5012486;28;20070;-75
2023/06/24 02:15:18;;;;;;;17.23;11.57;;;;;;;;;;5012411;28;20022;-75
2023/06/24 02:17:47;;;;;;;17.60;11.73;;;;;;;;;;5012540;28;20014;-75
2023/06/24 02:20:14;;;;;;;18.35;11.68;;;;;;;;;;5012763;28;20018;-75
2023/06/24 02:22:41;;;;;;;16.15;11.13;;;;;;;;;;5018989;28;20130;-75
2023/06/24 02:25:07;;;;;;;17.15;11.35;;;;;;;;;;5032197;28;20025;-75
2023/06/24 02:27:35;;;;;;;17.38;10.73;;;;;;;;;;5032087;28;20029;-75
2023/06/24 02:30:01;;;;;;;16.13;11.68;;;;;;;;;;5031955;28;20022;-75
2023/06/24 02:32:27;;;;;;;16.73;10.93;;;;;;;;;;5032040;28;20101;-74
2023/06/24 02:34:53;;;;;;;14.95;10.52;;;;;;;;;;5032220;28;20049;-74
2023/06/24 02:37:19;;;;;;;16.38;10.32;;;;;;;;;;5031981;28;20431;-75
2023/06/24 02:39:45;;;;;;;15.00;10.32;;;;;;;;;;5032034;28;20117;-75
2023/06/24 02:42:12;;;;;;;17.27;10.82;;;;;;;;;;5031658;28;20116;-75
2023/06/24 02:44:39;;;;;;;15.57;10.38;;;;;;;;;;5031563;28;20376;-75
2023/06/24 02:47:07;;;;;;;13.13;9.07;;;;;;;;;;5031663;28;20443;-75
2023/06/24 02:49:34;;;;;;;16.13;10.73;;;;;;;;;;5031809;28;20033;-75
2023/06/24 02:52:00;;;;;;;17.83;11.52;;;;;;;;;;5031381;28;20475;-75
2023/06/24 02:54:26;;;;;;;17.33;10.82;;;;;;;;;;5033878;28;20028;-75
2023/06/24 02:56:53;;;;;;;17.90;11.20;;;;;;;;;;5035396;28;20025;-75
2023/06/24 02:59:22;;;;;;;18.88;11.85;;;;;;;;;;5035340;28;20025;-75
2023/06/24 03:01:48;;;;;;;17.83;11.73;;;;;;;;;;5035577;28;20037;-75
2023/06/24 03:04:14;;;;;;;18.27;11.85;;;;;;;;;;5021032;28;20032;-74
2023/06/24 03:06:40;;;;;;;18.75;12.00;;;;;;;;;;5015538;28;20147;-75
2023/06/24 03:09:07;;;;;;;18.02;11.77;;;;;;;;;;5016662;28;20114;-75
2023/06/24 03:11:46;;;;;;;18.15;11.70;;;;;;;;;;5035041;28;20029;-75
2023/06/24 03:14:13;;;;;;;19.20;11.82;;;;;;;;;;5034877;28;20026;-74
2023/06/24 03:16:39;;;;;;;15.52;10.93;;;;;;;;;;5035358;28;20040;-75
2023/06/24 03:19:05;;;;;;;17.67;11.25;;;;;;;;;;5035601;28;20033;-75
2023/06/24 03:21:31;;;;;;;17.45;11.48;;;;;;;;;;5034966;28;20516;-75
2023/06/24 03:23:59;;;;;;;16.27;11.18;;;;;;;;;;5035316;28;20029;-75
2023/06/24 03:26:32;;;;;;;19.88;11.35;;;;;;;;;;5035308;28;20155;-75
2023/06/24 03:28:58;;;;;;;16.35;10.75;;;;;;;;;;5034919;28;20468;-75
2023/06/24 03:31:24;;;;;;;15.45;11.10;;;;;;;;;;5034746;28;20026;-74
2023/06/24 03:33:50;;;;;;;17.88;11.07;;;;;;;;;;5034698;28;20526;-74
2023/06/24 03:36:16;;;;;;;16.67;10.63;;;;;;;;;;5034820;28;20061;-74
2023/06/24 03:38:42;;;;;;;17.67;11.50;;;;;;;;;;5034768;28;20072;-75
2023/06/24 03:41:08;;;;;;;16.30;11.10;;;;;;;;;;5035032;28;20021;-74
2023/06/24 03:43:34;;;;;;;18.05;11.52;;;;;;;;;;5034753;28;20040;-75
2023/06/24 03:46:00;;;;;;;17.45;11.43;;;;;;;;;;5034885;28;20033;-74
2023/06/24 03:48:26;;;;;;;17.77;11.40;;;;;;;;;;5034719;28;20033;-75
2023/06/24 03:50:52;;;;;;;16.73;10.85;;;;;;;;;;5034525;28;20079;-74
2023/06/24 03:53:18;;;;;;;16.55;10.65;;;;;;;;;;5034218;28;20493;-75
2023/06/24 03:55:44;;;;;;;15.85;10.50;;;;;;;;;;5034425;28;20029;-75
2023/06/24 03:58:10;;;;;;;14.93;10.70;;;;;;;;;;5034233;28;20025;-75
2023/06/24 04:00:40;;;;;;;18.90;11.32;;;;;;;;;;5034519;28;20161;-74
2023/06/24 04:03:07;;;;;;;20.67;12.55;;;;;;;;;;5034581;28;20025;-75
2023/06/24 04:05:33;;;;;;;15.57;10.82;;;;;;;;;;5034100;28;20017;-75
2023/06/24 04:07:59;;;;;;;16.52;10.70;;;;;;;;;;5044328;28;20483;-75
2023/06/24 04:10:25;;;;;;;16.95;10.02;;;;;;;;;;5014526;28;20034;-75
2023/06/24 04:12:52;;;;;;;15.18;10.98;;;;;;;;;;5014698;28;20412;-75
2023/06/24 04:15:18;;;;;;;13.98;10.18;;;;;;;;;;5026316;28;20115;-75
2023/06/24 04:17:44;;;;;;;18.05;10.85;;;;;;;;;;5034537;28;20156;-75
2023/06/24 04:20:10;;;;;;;16.20;10.77;;;;;;;;;;5034159;28;20039;-75
2023/06/24 04:22:41;;;;;;;17.73;10.50;;;;;;;;;;5048110;28;20037;-75
2023/06/24 04:25:07;;;;;;;14.75;10.35;;;;;;;;;;5034639;28;20025;-75
2023/06/24 04:27:34;;;;;;;15.63;9.60;;;;;;;;;;5033686;28;20480;-75
2023/06/24 04:30:04;;;;;;;14.07;10.45;;;;;;;;;;5033944;28;20097;-75
2023/06/24 04:32:30;;;;;;;13.07;9.18;;;;;;;;;;5020757;28;20025;-75
2023/06/24 04:34:56;;;;;;;12.95;9.85;;;;;;;;;;5032750;28;20092;-75
2023/06/24 04:37:22;;;;;;;14.30;10.02;;;;;;;;;;5033910;28;20052;-75
2023/06/24 04:39:48;;;;;;;14.88;10.18;;;;;;;;;;5033963;28;20618;-75
2023/06/24 04:42:15;;;;;;;12.82;10.55;;;;;;;;;;5033649;28;20396;-75
2023/06/24 04:44:41;;;;;;;14.77;10.40;;;;;;;;;;5033747;28;20075;-75
2023/06/24 04:47:07;;;;;;;13.07;9.80;;;;;;;;;;5033895;28;20109;-75
2023/06/24 04:49:33;;;;;;;12.77;10.13;;;;;;;;;;5035589;28;20472;-75
2023/06/24 04:52:02;;;;;;;14.45;9.90;;;;;;;;;;5033347;28;20502;-75
2023/06/24 04:54:28;;;;;;;12.98;9.88;;;;;;;;;;5033621;28;20040;-75
2023/06/24 04:56:55;;;;;;;13.77;10.32;;;;;;;;;;5033548;28;20026;-75
2023/06/24 04:59:21;;;;;;;12.25;10.27;;;;;;;;;;5033818;28;20029;-75
2023/06/24 05:01:48;;;;;;;12.65;10.20;;;;;;;;;;5033339;28;20029;-75
2023/06/24 05:04:14;;;;;;;11.30;9.45;;;;;;;;;;5033584;28;20029;-75
2023/06/24 05:06:40;;;;;;;12.50;9.95;;;;;;;;;;5033562;28;20384;-75
2023/06/24 05:09:05;;;;;;;13.07;10.13;;;;;;;;;;5033216;28;20029;-75
2023/06/24 05:11:32;;;;;;;11.35;9.35;;;;;;;;;;5033115;28;20033;-76
2023/06/24 05:13:58;;;;;;;11.80;9.32;;;;;;;;;;5033283;28;20029;-75
2023/06/24 05:16:24;;;;;;;11.82;9.00;;;;;;;;;;5032941;28;20044;-75
2023/06/24 05:18:50;;;;;;;10.38;9.10;;;;;;;;;;5033030;28;20028;-76
2023/06/24 05:21:17;;;;;;;11.98;9.40;;;;;;;;;;5032865;28;20117;-76
2023/06/24 05:23:43;;;;;;;10.85;8.88;;;;;;;;;;5031865;28;20120;-75
2023/06/24 05:26:09;;;;;;;12.20;9.35;;;;;;;;;;5032692;28;20109;-76
2023/06/24 05:28:35;;;;;;;11.15;9.00;;;;;;;;;;5032693;28;20519;-76
2023/06/24 05:31:01;;;;;;;9.40;8.45;;;;;;;;;;5032904;28;20052;-76
2023/06/24 05:33:27;;;;;;;9.63;8.70;;;;;;;;;;5032716;28;20449;-75
2023/06/24 05:35:53;;;;;;;11.50;8.27;;;;;;;;;;5032658;28;20021;-76
2023/06/24 05:38:19;;;;;;;10.43;8.82;;;;;;;;;;5032481;28;20108;-76
2023/06/24 05:40:44;;;;;;;9.43;8.35;;;;;;;;;;5032531;28;20092;-76
2023/06/24 05:43:11;;;;;;;10.15;8.85;;;;;;;;;;5032558;28;20453;-76
2023/06/24 05:45:37;;;;;;;8.98;7.85;;;;;;;;;;5032623;28;20132;-76
2023/06/24 05:48:06;;;;;;;9.90;8.13;;;;;;;;;;5032496;28;20464;-76
2023/06/24 05:50:32;;;;;;;11.02;8.43;;;;;;;;;;5032487;28;20437;-76
2023/06/24 05:52:58;;;;;;;10.65;8.25;;;;;;;;;;5032100;28;20057;-76
2023/06/24 05:55:24;;;;;;;10.00;8.25;;;;;;;;;;5032162;28;20049;-76
2023/06/24 05:57:50;;;;;;;10.45;7.43;;;;;;;;;;5031796;28;20029;-76
2023/06/24 06:00:18;;;;;;;9.35;7.03;;;;;;;;;;5031376;28;20036;-75
2023/06/24 06:02:44;;;;;;;8.13;6.60;;;;;;;;;;5032127;28;20025;-76
2023/06/24 06:05:10;;;;;;;8.07;5.35;;;;;;;;;;5032192;28;20113;-76
2023/06/24 06:07:39;;;;;;;6.88;5.32;;;;;;;;;;5032197;28;20041;-76
2023/06/24 06:10:06;;;;;;;5.77;4.63;;;;;;;;;;5032388;28;20109;-76
2023/06/24 06:12:32;;;;;;;8.48;5.10;;;;;;;;;;5032298;28;20385;-76
2023/06/24 06:14:58;;;;;;;5.78;4.65;;;;;;;;;;5027015;28;20182;-76
2023/06/24 06:17:24;;;;;;;6.20;4.32;;;;;;;;;;5032342;28;20060;-76
2023/06/24 06:19:50;;;;;;;6.85;4.50;;;;;;;;;;5032235;28;20124;-76
2023/06/24 06:22:16;;;;;;;6.93;5.05;;;;;;;;;;5032029;28;20104;-76
2023/06/24 06:24:42;;;;;;;6.07;4.72;;;;;;;;;;5032440;28;20025;-76
2023/06/24 06:27:13;;;;;;;8.25;5.25;;;;;;;;;;5032040;28;20105;-76
2023/06/24 06:29:39;;;;;;;5.28;4.72;;;;;;;;;;5034402;28;20116;-76
2023/06/24 06:32:05;;;;;;;6.57;4.65;;;;;;;;;;5035762;28;20120;-76
2023/06/24 06:34:31;;;;;;;7.60;5.10;;;;;;;;;;5036112;28;20513;-76
2023/06/24 06:36:57;;;;;;;7.53;4.70;;;;;;;;;;5035982;28;20723;-75
2023/06/24 06:39:23;;;;;;;5.97;4.45;;;;;;;;;;5035908;28;20113;-76
2023/06/24 06:41:49;;;;;;;7.95;4.47;;;;;;;;;;5035800;28;20096;-76
2023/06/24 06:44:15;;;;;;;6.05;4.55;;;;;;;;;;5035630;28;20513;-76
2023/06/24 06:46:41;;;;;;;6.38;4.78;;;;;;;;;;5035736;28;20026;-76
2023/06/24 06:49:08;;;;;;;5.82;4.50;;;;;;;;;;5035507;28;20549;-76
2023/06/24 06:51:34;;;;;;;5.30;4.10;;;;;;;;;;5035545;28;20637;-76
2023/06/24 06:54:01;;;;;;;7.97;4.85;;;;;;;;;;5035787;28;20041;-76
2023/06/24 06:56:27;;;;;;;6.35;4.60;;;;;;;;;;5035050;28;20037;-75
2023/06/24 06:58:53;;;;;;;7.47;4.55;;;;;;;;;;5035799;28;20048;-76
2023/06/24 07:01:19;;;;;;;5.88;4.60;;;;;;;;;;5035389;28;20385;-76
2023/06/24 07:03:46;;;;;;;5.88;4.90;;;;;;;;;;5035620;28;20034;-76
2023/06/24 07:06:12;;;;;;;5.85;4.70;;;;;;;;;;5033326;28;20036;-76
2023/06/24 07:08:38;;;;;;;6.50;4.93;;;;;;;;;;5024153;28;20547;-76
2023/06/24 07:11:04;;;;;;;6.80;4.43;;;;;;;;;;5019741;28;20148;-75
2023/06/24 07:13:30;;;;;;;7.15;4.30;;;;;;;;;;5015315;28;20033;-76
2023/06/24 07:15:56;;;;;;;6.68;4.22;;;;;;;;;;5030927;28;20488;-74
2023/06/24 07:18:22;;;;;;;7.97;4.70;;;;;;;;;;5035036;28;20029;-74
2023/06/24 07:20:48;;;;;;;5.53;4.43;;;;;;;;;;5035111;28;20030;-74
2023/06/24 07:23:14;;;;;;;5.55;4.45;;;;;;;;;;5035204;28;20116;-74
2023/06/24 07:25:40;;;;;;;8.68;5.25;;;;;;;;;;5018287;28;20113;-76
2023/06/24 07:28:06;;;;;;;6.47;4.55;;;;;;;;;;5025020;28;20037;-75
2023/06/24 07:30:32;;;;;;;6.28;4.97;;;;;;;;;;5015033;28;20026;-76
2023/06/24 07:32:58;;;;;;;6.93;4.97;;;;;;;;;;5021379;28;20439;-76
2023/06/24 07:35:24;;;;;;;6.78;4.63;;;;;;;;;;5030555;28;20034;-76
2023/06/24 07:37:50;;;;;;;9.45;4.82;;;;;;;;;;5034418;28;20051;-76
2023/06/24 07:40:16;;;;;;;7.07;4.88;;;;;;;;;;5025939;28;20491;-76
2023/06/24 07:42:42;;;;;;;6.30;4.65;;;;;;;;;;5014684;28;20036;-76
2023/06/24 07:45:09;;;;;;;7.35;4.72;;;;;;;;;;5017223;28;20076;-76
2023/06/24 07:47:35;;;;;;;6.75;4.68;;;;;;;;;;5034534;28;20026;-76
2023/06/24 07:50:01;;;;;;;7.53;4.43;;;;;;;;;;5034382;28;20100;-76
2023/06/24 07:52:27;;;;;;;7.20;4.55;;;;;;;;;;5024922;28;20108;-77
2023/06/24 07:54:53;;;;;;;9.65;5.47;;;;;;;;;;5030364;28;20029;-76
2023/06/24 07:57:19;;;;;;;8.00;5.40;;;;;;;;;;5024242;28;20017;-76
2023/06/24 07:59:45;;;;;;;5.35;4.35;;;;;;;;;;5030275;28;20022;-76
2023/06/24 08:02:11;;;;;;;7.95;5.25;;;;;;;;;;5017157;28;20048;-76
2023/06/24 08:04:37;;;;;;;6.90;5.03;;;;;;;;;;5025999;28;20437;-76
2023/06/24 08:07:04;;;;;;;5.53;4.90;;;;;;;;;;5023198;28;20030;-76
2023/06/24 08:09:30;;;;;;;7.50;4.85;;;;;;;;;;5038959;28;20045;-76
2023/06/24 08:11:56;;;;;;;6.22;4.75;;;;;;;;;;5034143;28;20096;-76
2023/06/24 08:14:22;;;;;;;6.18;5.13;;;;;;;;;;5033935;28;20018;-75
2023/06/24 08:16:48;;;;;;;6.85;5.38;;;;;;;;;;5033799;28;20143;-75
2023/06/24 08:19:14;;;;;;;11.20;5.47;;;;;;;;;;5034063;28;20026;-76
2023/06/24 08:21:40;;;;;;;7.72;5.95;;;;;;;;;;5028139;28;20026;-76
2023/06/24 08:24:07;;;;;;;9.65;5.43;;;;;;;;;;5016536;28;20069;-76
2023/06/24 08:26:33;;;;;;;8.18;5.95;;;;;;;;;;5033962;28;20018;-75
2023/06/24 08:28:59;;;;;;;7.38;5.25;;;;;;;;;;5033650;28;20076;-75
2023/06/24 08:31:25;;;;;;;9.70;5.40;;;;;;;;;;5026923;28;20089;-75
2023/06/24 08:33:55;;;;;;;6.28;4.90;;;;;;;;;;5017832;28;20022;-75
2023/06/24 08:36:24;;;;;;;7.60;5.20;;;;;;;;;;5030406;28;20053;-75
2023/06/24 08:38:50;;;;;;;7.80;4.63;;;;;;;;;;5033318;28;20104;-75
2023/06/24 08:41:16;;;;;;;6.28;4.55;;;;;;;;;;5014350;28;20061;-75
2023/06/24 08:43:42;;;;;;;4.15;3.55;;;;;;;;;;5025923;28;20060;-75
2023/06/24 08:46:09;;;;;;;5.72;3.97;;;;;;;;;;5033432;28;20360;-75
2023/06/24 08:48:40;;;;;;;7.35;5.00;;;;;;;;;;5033083;28;20024;-75
2023/06/24 08:51:08;;;;;;;5.97;4.60;;;;;;;;;;5032759;28;20349;-75
2023/06/24 08:53:34;;;;;;;5.88;4.93;;;;;;;;;;5032594;28;20385;-75
2023/06/24 08:56:00;;;;;;;5.97;5.18;;;;;;;;;;5033067;28;20029;-75
2023/06/24 08:58:27;;;;;;;6.60;4.88;;;;;;;;;;5033180;28;20041;-75
2023/06/24 09:00:53;;;;;;;6.18;4.50;;;;;;;;;;5021398;28;20104;-75
2023/06/24 09:03:19;;;;;;;5.47;4.80;;;;;;;;;;5021373;28;20083;-75
2023/06/24 09:05:45;;;;;;;7.07;4.78;;;;;;;;;;5032911;28;20034;-75
2023/06/24 09:08:11;;;;;;;7.30;4.95;;;;;;;;;;5027969;28;20041;-75
2023/06/24 09:10:38;;;;;;;4.85;4.32;;;;;;;;;;5013224;28;20068;-75
2023/06/24 09:13:05;;;;;;;6.25;4.35;;;;;;;;;;5019971;28;20025;-76
2023/06/24 09:15:31;;;;;;;6.70;4.32;;;;;;;;;;5032564;28;20036;-76
2023/06/24 09:17:58;;;;;;;7.38;5.03;;;;;;;;;;5017677;28;20053;-76
2023/06/24 09:20:24;;;;;;;6.75;5.18;;;;;;;;;;5013317;28;20024;-76
2023/06/24 09:22:51;;;;;;;6.45;5.43;;;;;;;;;;5014971;28;20424;-76
2023/06/24 09:25:18;;;;;;;6.38;5.55;;;;;;;;;;5032619;28;20449;-76
2023/06/24 09:27:49;;;;;;;26.88;8.85;;;;;;;;;;5026976;28;20117;-76
2023/06/24 09:30:20;;;;;;;8.43;6.05;;;;;;;;;;5013350;28;20092;-75
2023/06/24 09:32:46;;;;;;;7.65;6.68;;;;;;;;;;5032658;28;20025;-75
2023/06/24 09:35:12;;;;;;;8.02;5.30;;;;;;;;;;5032647;28;20415;-75
2023/06/24 09:37:39;;;;;;;9.70;5.70;;;;;;;;;;5032555;28;20476;-76
2023/06/24 09:40:06;;;;;;;9.38;6.55;;;;;;;;;;5032393;28;20656;-76
2023/06/24 09:42:32;;;;;;;11.05;6.88;;;;;;;;;;5032509;28;20026;-75
2023/06/24 09:44:59;;;;;;;8.52;6.18;;;;;;;;;;5032165;28;20091;-76
2023/06/24 09:47:26;;;;;;;10.20;7.30;;;;;;;;;;5032198;28;20030;-74
2023/06/24 09:49:53;;;;;;;53.47;12.65;;;;;;;;;;5030993;28;20021;-74
2023/06/24 09:52:19;;;;;;;10.93;7.53;;;;;;;;;;5012390;28;20029;-75
2023/06/24 09:54:47;;;;;;;9.07;6.78;;;;;;;;;;5027673;28;20022;-75
2023/06/24 09:57:13;;;;;;;9.10;6.90;;;;;;;;;;5023372;28;20026;-75
2023/06/24 09:59:40;;;;;;;10.75;6.65;;;;;;;;;;5012515;28;20097;-75
2023/06/24 10:02:10;;;;;;;9.43;6.80;;;;;;;;;;5012252;28;20033;-74
2023/06/24 10:04:36;;;;;;;7.53;6.13;;;;;;;;;;5028863;28;20026;-74
2023/06/24 10:07:02;;;;;;;9.93;7.25;;;;;;;;;;5032073;28;20029;-74
2023/06/24 10:09:28;;;;;;;8.10;7.00;;;;;;;;;;5032298;28;20052;-75
2023/06/24 10:11:54;;;;;;;10.50;8.30;;;;;;;;;;5018820;28;20036;-74
2023/06/24 10:14:20;;;;;;;8.02;7.00;;;;;;;;;;5012187;28;20037;-74
2023/06/24 10:16:46;;;;;;;8.38;6.75;;;;;;;;;;5012319;28;20033;-74
2023/06/24 10:19:19;;;;;;;8.68;6.72;;;;;;;;;;5028231;28;20415;-76
2023/06/24 10:21:46;;;;;;;10.57;7.30;;;;;;;;;;5032105;28;20076;-75
2023/06/24 10:24:32;;;;;;;7.03;5.95;;;;;;;;;;5032145;28;20029;-76
2023/06/24 10:27:06;;;;;;;26.70;8.40;;;;;;;;;;5032028;28;20464;-76
2023/06/24 10:29:36;;;;;;;8.57;5.68;;;;;;;;;;5026931;28;20034;-76
2023/06/24 10:32:11;;;;;;;9.23;6.07;;;;;;;;;;5011948;28;20414;-76
2023/06/24 10:34:56;;;;;;;7.65;6.70;;;;;;;;;;5013199;28;20022;-76
2023/06/24 10:37:26;;;;;;;7.18;6.10;;;;;;;;;;5021374;28;20025;-76
2023/06/24 10:39:59;;;;;;;6.00;5.40;;;;;;;;;;5032287;28;20022;-75
2023/06/24 10:42:25;;;;;;;6.32;5.30;;;;;;;;;;5031886;28;20072;-76
2023/06/24 10:44:52;;;;;;;8.40;4.88;;;;;;;;;;5031990;28;20100;-76
2023/06/24 10:47:18;;;;;;;5.22;4.72;;;;;;;;;;5031609;28;20056;-76
2023/06/24 10:49:45;;;;;;;4.72;4.22;;;;;;;;;;5031921;28;20022;-76
2023/06/24 10:52:11;;;;;;;8.68;5.57;;;;;;;;;;5031602;28;20025;-76
2023/06/24 10:54:41;;;;;;;5.45;4.90;;;;;;;;;;5031552;28;20036;-76
2023/06/24 10:57:07;;;;;;;7.50;5.28;;;;;;;;;;5012111;28;20461;-76
2023/06/24 10:59:41;;;;;;;7.72;5.57;;;;;;;;;;5012062;28;20105;-76
2023/06/24 11:02:09;;;;;;;11.02;6.20;;;;;;;;;;5014341;28;20025;-76
2023/06/24 11:04:43;;;;;;;8.98;5.88;;;;;;;;;;5031823;28;20105;-76
2023/06/24 11:07:09;;;;;;;9.27;5.88;;;;;;;;;;5031745;28;20400;-76
2023/06/24 11:09:36;;;;;;;7.22;5.53;;;;;;;;;;5031825;28;20022;-76
2023/06/24 11:12:05;;;;;;;6.68;5.18;;;;;;;;;;5047193;28;20032;-76
2023/06/24 11:14:34;;;;;;;6.60;5.28;;;;;;;;;;5031946;28;20018;-76
2023/06/24 11:17:01;;;;;;;10.07;6.40;;;;;;;;;;5035529;28;20018;-76
2023/06/24 11:19:27;;;;;;;6.53;5.35;;;;;;;;;;5035606;28;20029;-76
2023/06/24 11:21:53;;;;;;;5.70;4.15;;;;;;;;;;5035106;28;20036;-76
2023/06/24 11:24:19;;;;;;;8.88;5.53;;;;;;;;;;5035136;28;20025;-76
2023/06/24 11:26:46;;;;;;;8.80;6.38;;;;;;;;;;5035055;28;20026;-76
2023/06/24 11:29:12;;;;;;;8.93;6.25;;;;;;;;;;5035166;28;20036;-76
2023/06/24 11:31:38;;;;;;;9.43;6.40;;;;;;;;;;5034978;28;20026;-76
2023/06/24 11:34:05;;;;;;;8.18;6.20;;;;;;;;;;5035412;28;20368;-76
2023/06/24 11:36:31;;;;;;;8.80;6.00;;;;;;;;;;5034739;28;20045;-76
2023/06/24 11:38:57;;;;;;;8.00;5.70;;;;;;;;;;5035036;28;20526;-76
2023/06/24 11:41:25;;;;;;;7.38;5.68;;;;;;;;;;5034737;28;20434;-76
2023/06/24 11:43:51;;;;;;;7.50;5.30;;;;;;;;;;5034382;28;20377;-76
2023/06/24 11:46:35;;;;;;;8.82;5.80;;;;;;;;;;5034553;28;20029;-76
2023/06/24 11:49:05;;;;;;;7.10;5.13;;;;;;;;;;5015131;28;20018;-76
2023/06/24 11:51:31;;;;;;;6.68;4.70;;;;;;;;;;5029768;28;20017;-76
2023/06/24 11:54:01;;;;;;;8.13;5.00;;;;;;;;;;5034714;28;20068;-76
2023/06/24 11:56:37;;;;;;;6.32;4.57;;;;;;;;;;5031821;28;20018;-75
2023/06/24 11:59:06;;;;;;;8.98;5.07;;;;;;;;;;5014529;28;20025;-75
2023/06/24 12:01:36;;;;;;;6.22;4.22;;;;;;;;;;5025931;28;20021;-76
2023/06/24 12:04:10;;;;;;;5.28;4.22;;;;;;;;;;5033435;28;20397;-76
2023/06/24 12:06:36;;;;;;;5.30;3.83;;;;;;;;;;5033871;28;20028;-75
2023/06/24 12:09:02;;;;;;;5.63;4.18;;;;;;;;;;5033712;28;20025;-76
2023/06/24 12:11:28;;;;;;;4.40;4.00;;;;;;;;;;5033381;28;20640;-76
2023/06/24 12:13:54;;;;;;;5.43;4.65;;;;;;;;;;5033423;28;20104;-75
2023/06/24 12:16:22;;;;;;;5.53;4.22;;;;;;;;;;5033174;28;20022;-76
2023/06/24 12:18:49;;;;;;;4.88;4.00;;;;;;;;;;5033010;28;20036;-76
2023/06/24 12:21:15;;;;;;;6.03;4.15;;;;;;;;;;5032659;28;20354;-76
2023/06/24 12:23:41;;;;;;;6.03;4.25;;;;;;;;;;5033208;28;20044;-76
2023/06/24 12:26:07;;;;;;;6.07;4.70;;;;;;;;;;5033232;28;20026;-76
2023/06/24 12:28:33;;;;;;;3.80;3.50;;;;;;;;;;5032678;28;20029;-75
2023/06/24 12:30:58;;;;;;;4.15;3.67;;;;;;;;;;5033063;28;20041;-76
2023/06/24 12:33:24;;;;;;;5.70;4.35;;;;;;;;;;5033742;28;20065;-75
2023/06/24 12:35:50;;;;;;;6.20;3.80;;;;;;;;;;5033739;28;20036;-76
2023/06/24 12:38:17;;;;;;;7.10;4.47;;;;;;;;;;5033935;28;20033;-75
2023/06/24 12:40:43;;;;;;;6.03;4.72;;;;;;;;;;5033878;28;20032;-75
2023/06/24 12:43:09;;;;;;;6.20;4.10;;;;;;;;;;5020820;28;20516;-75
2023/06/24 12:45:36;;;;;;;7.38;4.72;;;;;;;;;;5030156;28;20028;-76
2023/06/24 12:48:02;;;;;;;5.32;4.03;;;;;;;;;;5033669;28;20031;-76
2023/06/24 12:50:31;;;;;;;5.97;4.43;;;;;;;;;;5033338;28;20104;-76
2023/06/24 12:52:57;;;;;;;;;;;;;;;;;;5033838;28;20053;-76
2023/06/24 12:55:23;;;;;;;4.75;4.15;;;;;;;;;;5033387;28;19905;-76
2023/06/24 12:57:49;;;;;;;4.40;4.00;;;;;;;;;;5033342;28;20040;-76
2023/06/24 13:00:16;;;;;;;5.70;4.28;;;;;;;;;;5033519;28;20105;-76
2023/06/24 13:02:42;;;;;;;7.15;4.15;;;;;;;;;;5033276;28;20025;-76
2023/06/24 13:05:09;;;;;;;4.68;4.22;;;;;;;;;;5033074;28;20223;-76
2023/06/24 13:07:35;;;;;;;5.45;3.90;;;;;;;;;;5032973;28;20030;-76
2023/06/24 13:10:01;;;;;;;7.05;3.90;;;;;;;;;;5033136;28;20396;-76
2023/06/24 13:12:27;;;;;;;3.80;3.35;;;;;;;;;;5033079;28;20110;-75
2023/06/24 13:14:53;;;;;;;5.40;4.35;;;;;;;;;;5032986;28;20022;-76
2023/06/24 13:17:19;;;;;;;6.57;3.90;;;;;;;;;;5032951;28;20087;-76
2023/06/24 13:19:45;;;;;;;4.20;3.40;;;;;;;;;;5032917;28;20030;-76
2023/06/24 13:22:11;;;;;;;7.18;4.50;;;;;;;;;;5032752;28;20798;-76
2023/06/24 13:24:37;;;;;;;5.47;2.55;;;;;;;;;;5032901;28;20056;-76
2023/06/24 13:27:04;;;;;;;4.03;3.35;;;;;;;;;;5032640;28;20104;-75
2023/06/24 13:29:30;;;;;;;4.93;3.50;;;;;;;;;;5032442;28;20029;-76
2023/06/24 13:31:56;;;;;;;5.82;3.70;;;;;;;;;;5032925;28;20415;-76
2023/06/24 13:34:22;;;;;;;3.70;2.67;;;;;;;;;;5032683;28;20021;-75
2023/06/24 13:36:48;;;;;;;4.22;3.13;;;;;;;;;;5032555;28;20018;-76
2023/06/24 13:39:16;;;;;;;4.00;3.17;;;;;;;;;;5031970;28;20528;-76
2023/06/24 13:41:43;;;;;;;6.07;4.20;;;;;;;;;;5032351;28;20105;-76
2023/06/24 13:44:09;;;;;;;7.47;3.92;;;;;;;;;;5032328;28;20084;-76
2023/06/24 13:46:35;;;;;;;6.40;3.95;;;;;;;;;;5032685;28;20449;-76
2023/06/24 13:49:02;;;;;;;5.93;4.43;;;;;;;;;;5032601;28;20037;-76
2023/06/24 13:51:29;;;;;;;7.68;4.38;;;;;;;;;;5032446;28;20306;-76
2023/06/24 13:53:55;;;;;;;5.40;4.70;;;;;;;;;;5032282;28;20064;-76
2023/06/24 13:56:23;;;;;;;4.80;4.03;;;;;;;;;;5032357;28;20057;-76
2023/06/24 13:58:50;;;;;;;6.82;4.40;;;;;;;;;;5042389;28;20026;-76
2023/06/24 14:01:16;;;;;;;6.15;3.88;;;;;;;;;;5012182;28;20045;-76
2023/06/24 14:03:42;;;;;;;4.68;4.07;;;;;;;;;;5012600;28;20030;-76
2023/06/24 14:06:08;;;;;;;5.97;3.90;;;;;;;;;;5013823;28;20021;-76
2023/06/24 14:08:34;;;;;;;6.60;3.70;;;;;;;;;;5032513;28;20100;-76
2023/06/24 14:11:01;;;;;;;4.47;3.22;;;;;;;;;;5030493;28;20108;-76
2023/06/24 14:13:28;;;;;;;5.68;3.80;;;;;;;;;;5014337;28;20022;-76
2023/06/24 14:15:54;;;;;;;5.20;3.63;;;;;;;;;;5031908;28;20416;-76
2023/06/24 14:18:20;;;;;;;5.32;3.53;;;;;;;;;;5031950;28;20029;-76
2023/06/24 14:20:46;;;;;;;6.32;4.70;;;;;;;;;;5031900;28;20025;-76
2023/06/24 14:23:12;;;;;;;7.05;3.90;;;;;;;;;;5031800;28;20521;-76
2023/06/24 14:25:38;;;;;;;6.45;4.05;;;;;;;;;;5033168;28;20022;-75
2023/06/24 14:28:05;;;;;;;4.80;3.53;;;;;;;;;;5025814;28;20030;-75
2023/06/24 14:30:31;;;;;;;6.07;3.75;;;;;;;;;;5047633;28;20108;-76
2023/06/24 14:32:57;;;;;;;5.53;3.72;;;;;;;;;;5032159;28;20414;-76